Time;durP1;ratioP1;P1;durP2;ratioP2;P2;SDS_P1;SDS_P2;PMS_P1;PMS_P2;Temp;Humidity;BMP_temperature;BMP_pressure;BME280_temperature;BME280_humidity;BME280_pressure;Samples;Min_cycle;Max_cycle;Signal;HPM_P1;HPM_P2
2023/12/07 00:01:45;;;;;;;14.53;10.73;;;;;;;10.70;75.09;94238.56;4989370;28;20200;-42
2023/12/07 00:04:11;;;;;;;14.73;10.13;;;;;;;10.70;75.18;94242.88;4989395;28;20189;-43
2023/12/07 00:06:39;;;;;;;13.90;9.47;;;;;;;10.69;75.12;94249.75;4992706;28;20672;-46
2023/12/07 00:09:07;;;;;;;18.00;10.87;;;;;;;10.66;75.30;94244.94;4993382;28;20229;-44
2023/12/07 00:11:33;;;;;;;14.90;10.13;;;;;;;10.68;75.24;94248.16;4992751;28;20667;-44
2023/12/07 00:14:00;;;;;;;13.63;9.97;;;;;;;10.51;75.21;94229.34;4992321;28;20200;-45
2023/12/07 00:16:27;;;;;;;13.47;9.37;;;;;;;10.68;75.15;94249.91;4992680;28;20267;-42
2023/12/07 00:18:54;;;;;;;12.93;9.00;;;;;;;10.66;75.17;94244.94;4992262;28;20193;-44
2023/12/07 00:21:20;;;;;;;12.60;9.47;;;;;;;10.56;75.32;94234.00;4992818;28;20275;-44
2023/12/07 00:23:47;;;;;;;15.67;9.60;;;;;;;10.65;75.11;94253.56;4992555;28;20518;-44
2023/12/07 00:26:15;;;;;;;12.77;9.90;;;;;;;10.64;75.32;94248.59;4992582;28;20649;-44
2023/12/07 00:28:42;;;;;;;14.10;9.87;;;;;;;10.63;75.07;94252.13;4992172;28;20189;-43
2023/12/07 00:31:10;;;;;;;13.40;10.03;;;;;;;10.61;75.13;94254.00;4992317;28;20248;-42
2023/12/07 00:33:37;;;;;;;13.97;9.80;;;;;;;10.61;75.35;94251.44;4992007;28;20225;-45
2023/12/07 00:36:04;;;;;;;14.20;9.67;;;;;;;10.60;75.37;94248.09;4984627;28;20185;-42
2023/12/07 00:38:32;;;;;;;11.77;9.03;;;;;;;10.60;75.38;94244.75;4991983;28;20280;-42
2023/12/07 00:40:59;;;;;;;14.03;9.47;;;;;;;10.60;75.14;94252.41;4992104;28;20196;-44
2023/12/07 00:43:27;;;;;;;13.57;9.83;;;;;;;10.41;75.34;94220.16;4991982;28;20189;-44
2023/12/07 00:45:57;;;;;;;13.33;9.73;;;;;;;10.44;75.22;94225.75;4992125;28;20296;-44
2023/12/07 00:48:24;;;;;;;13.33;10.23;;;;;;;10.57;75.36;94248.38;4991868;28;20573;-44
2023/12/07 00:50:51;;;;;;;16.17;9.50;;;;;;;10.57;75.21;94248.38;4991900;28;20212;-45
2023/12/07 00:53:17;;;;;;;15.53;10.70;;;;;;;10.45;75.27;94219.72;4992480;28;20198;-44
2023/12/07 00:55:44;;;;;;;13.47;9.93;;;;;;;10.57;75.41;94233.03;4991826;28;20204;-44
2023/12/07 00:58:11;;;;;;;15.40;10.57;;;;;;;10.50;75.42;94225.19;4992557;28;20193;-44
2023/12/07 01:00:39;;;;;;;13.47;9.83;;;;;;;10.56;75.48;94239.13;4990965;28;20185;-45
2023/12/07 01:03:06;;;;;;;15.20;9.93;;;;;;;10.57;75.65;94234.81;4991194;28;20656;-43
2023/12/07 01:05:33;;;;;;;13.13;10.13;;;;;;;10.57;75.47;94240.72;4991338;28;20225;-43
2023/12/07 01:08:00;;;;;;;15.30;9.60;;;;;;;10.57;75.42;94233.03;4991936;28;20232;-44
2023/12/07 01:10:26;;;;;;;13.07;10.10;;;;;;;10.54;75.56;94230.81;4991251;28;20228;-47
2023/12/07 01:12:53;;;;;;;13.50;9.53;;;;;;;10.56;75.42;94231.44;4991490;28;20192;-44
2023/12/07 01:15:20;;;;;;;16.00;10.20;;;;;;;10.52;75.56;94227.56;4991157;28;20703;-43
2023/12/07 01:17:50;;;;;;;15.90;10.97;;;;;;;10.54;75.49;94236.72;4990896;28;20239;-44
2023/12/07 01:20:17;;;;;;;16.07;10.57;;;;;;;10.50;75.41;94227.75;4991332;28;20197;-44
2023/12/07 01:22:45;;;;;;;14.43;10.30;;;;;;;10.51;75.52;94234.44;4992112;28;20285;-45
2023/12/07 01:25:16;;;;;;;15.57;10.07;;;;;;;10.51;75.75;94243.88;4991394;28;20193;-43
2023/12/07 01:27:43;;;;;;;14.87;10.90;;;;;;;10.50;75.79;94229.50;4991262;28;20192;-43
2023/12/07 01:30:10;;;;;;;12.73;9.60;;;;;;;10.50;75.78;94232.06;4991791;28;20295;-44
2023/12/07 01:32:37;;;;;;;14.77;10.20;;;;;;;9.96;75.66;94146.94;4973926;28;20252;-45
2023/12/07 01:35:07;;;;;;;15.57;10.47;;;;;;;10.48;75.88;94226.28;4991014;28;20201;-45
2023/12/07 01:37:33;;;;;;;14.50;10.20;;;;;;;10.47;75.71;94228.03;4971512;28;20886;-44
2023/12/07 01:40:00;;;;;;;14.83;11.03;;;;;;;10.47;75.84;94230.59;4982977;28;20201;-45
2023/12/07 01:42:27;;;;;;;13.83;10.50;;;;;;;10.46;75.76;94228.97;4990812;28;20292;-45
2023/12/07 01:44:54;;;;;;;15.23;9.57;;;;;;;10.46;76.02;94231.53;4991184;28;20201;-46
2023/12/07 01:47:21;;;;;;;15.33;11.50;;;;;;;10.46;75.73;94231.53;4990246;28;20205;-44
2023/12/07 01:49:48;;;;;;;15.93;10.77;;;;;;;10.46;75.88;94223.88;4990459;28;20295;-44
2023/12/07 01:52:18;;;;;;;16.03;11.20;;;;;;;10.47;75.85;94227.22;4990906;28;20279;-45
2023/12/07 01:54:47;;;;;;;15.13;11.03;;;;;;;10.47;75.83;94227.22;4991008;28;20193;-44
2023/12/07 01:57:14;;;;;;;13.53;10.43;;;;;;;10.47;75.90;94224.66;4990522;28;20244;-44
2023/12/07 01:59:41;;;;;;;14.63;10.03;;;;;;;10.45;75.83;94217.16;4973326;28;20292;-44
2023/12/07 02:02:09;;;;;;;15.37;10.60;;;;;;;10.48;75.90;94218.59;4991654;28;20193;-45
2023/12/07 02:04:37;;;;;;;15.20;11.50;;;;;;;10.50;75.89;94221.81;4991187;28;20666;-43
2023/12/07 02:07:05;;;;;;;18.57;11.17;;;;;;;10.49;75.83;94215.91;4990129;28;20189;-43
2023/12/07 02:09:33;;;;;;;16.50;11.73;;;;;;;10.33;76.13;94197.91;4990047;28;20242;-43
2023/12/07 02:12:01;;;;;;;17.47;11.97;;;;;;;10.51;75.81;94228.53;4989605;28;20288;-43
2023/12/07 02:14:28;;;;;;;15.63;11.00;;;;;;;10.52;75.85;94227.56;4990452;28;20269;-43
2023/12/07 02:17:02;;;;;;;15.60;11.37;;;;;;;10.51;75.94;94223.41;4990834;28;20192;-45
2023/12/07 02:19:54;;;;;;;16.67;12.53;;;;;;;10.49;75.94;94208.25;4989094;28;20192;-43
2023/12/07 02:22:30;;;;;;;17.07;11.70;;;;;;;10.49;76.12;94205.69;4990219;28;20629;-44
2023/12/07 02:25:07;;;;;;;17.80;12.43;;;;;;;10.51;75.79;94211.44;4990747;28;20196;-45
2023/12/07 02:27:38;;;;;;;18.80;12.50;;;;;;;10.40;75.91;94191.22;4971930;28;20220;-44
2023/12/07 02:30:06;;;;;;;16.30;11.47;;;;;;;10.52;75.89;94214.78;4989289;28;20216;-43
2023/12/07 02:32:33;;;;;;;19.00;12.50;;;;;;;10.50;75.79;94212.41;4970339;28;20198;-43
2023/12/07 02:35:01;;;;;;;17.33;11.80;;;;;;;10.37;75.75;94190.75;4970668;28;20194;-45
2023/12/07 02:37:33;;;;;;;20.10;13.43;;;;;;;9.59;75.92;94073.88;4979436;28;20547;-42
2023/12/07 02:40:03;;;;;;;15.97;11.77;;;;;;;10.44;75.85;94200.19;4990358;28;20196;-42
2023/12/07 02:42:32;;;;;;;20.77;12.73;;;;;;;10.49;76.03;94207.41;4989377;28;20586;-46
2023/12/07 02:45:01;;;;;;;18.50;12.10;;;;;;;10.50;75.88;94209.03;4989984;28;20200;-45
2023/12/07 02:47:28;;;;;;;15.87;12.43;;;;;;;10.50;75.98;94209.03;4989948;28;20200;-44
2023/12/07 02:49:55;;;;;;;20.13;12.23;;;;;;;10.50;75.94;94203.94;4989745;28;20220;-45
2023/12/07 02:52:22;;;;;;;20.80;12.67;;;;;;;10.49;75.81;94208.25;4989471;28;20228;-43
2023/12/07 02:54:49;;;;;;;18.73;12.40;;;;;;;10.30;75.98;94170.88;4989740;28;20197;-45
2023/12/07 02:57:16;;;;;;;21.00;13.47;;;;;;;10.50;75.88;94209.03;4990015;28;20239;-43
2023/12/07 02:59:42;;;;;;;19.33;12.70;;;;;;;10.49;76.00;94200.56;4990242;28;20545;-45
2023/12/07 03:02:10;;;;;;;18.47;12.93;;;;;;;10.49;75.96;94198.03;4989842;28;20271;-43
2023/12/07 03:04:39;;;;;;;18.60;12.43;;;;;;;10.51;75.88;94203.78;4989475;28;20200;-43
2023/12/07 03:07:06;;;;;;;19.60;12.80;;;;;;;10.37;76.04;94176.19;4989737;28;20576;-45
2023/12/07 03:09:32;;;;;;;19.57;12.87;;;;;;;10.50;75.96;94199.63;4989269;28;20320;-44
2023/12/07 03:11:59;;;;;;;17.73;12.07;;;;;;;10.50;76.09;94203.94;4972442;28;20232;-44
2023/12/07 03:14:26;;;;;;;18.50;12.90;;;;;;;10.51;76.09;94208.09;4988715;28;20204;-44
2023/12/07 03:16:53;;;;;;;20.67;12.47;;;;;;;10.51;76.01;94210.63;4989711;28;20564;-42
2023/12/07 03:19:21;;;;;;;18.30;12.43;;;;;;;10.50;76.06;94217.50;4989278;28;20196;-43
2023/12/07 03:21:48;;;;;;;16.57;12.20;;;;;;;10.48;76.06;94216.03;4989647;28;20233;-44
2023/12/07 03:24:15;;;;;;;18.40;12.40;;;;;;;10.45;76.04;94213.81;4989505;28;20633;-43
2023/12/07 03:26:42;;;;;;;18.07;12.03;;;;;;;10.50;75.91;94229.50;4989350;28;20251;-40
2023/12/07 03:29:08;;;;;;;20.10;12.67;;;;;;;10.46;75.91;94226.44;4988910;28;20196;-44
2023/12/07 03:31:35;;;;;;;16.87;11.77;;;;;;;10.49;75.95;94233.81;4989440;28;20243;-45
2023/12/07 03:34:03;;;;;;;19.43;12.33;;;;;;;10.50;75.90;94237.16;4989798;28;20570;-44
2023/12/07 03:36:31;;;;;;;14.90;10.97;;;;;;;10.48;75.96;94228.81;4989276;28;20553;-46
2023/12/07 03:38:58;;;;;;;19.33;11.80;;;;;;;10.45;75.96;94232.50;4989313;28;20204;-46
2023/12/07 03:41:25;;;;;;;15.47;10.93;;;;;;;10.48;75.88;94233.94;4993268;28;20197;-45
2023/12/07 03:43:53;;;;;;;15.73;10.63;;;;;;;10.50;75.95;94227.75;4993308;28;20192;-45
2023/12/07 03:46:19;;;;;;;15.70;10.37;;;;;;;10.51;75.73;94231.88;4993372;28;20661;-43
2023/12/07 03:48:46;;;;;;;18.70;10.73;;;;;;;10.52;75.84;94238.59;4993154;28;20228;-45
2023/12/07 03:51:16;;;;;;;17.13;11.00;;;;;;;10.51;75.67;94231.88;4993033;28;20224;-45
2023/12/07 03:53:44;;;;;;;16.37;10.40;;;;;;;10.52;75.77;94232.69;4993332;28;20285;-46
2023/12/07 03:56:11;;;;;;;16.13;10.60;;;;;;;10.51;75.79;94225.97;4992886;28;20204;-46
2023/12/07 03:58:38;;;;;;;15.20;10.87;;;;;;;10.33;75.60;94197.09;4992715;28;20243;-46
2023/12/07 04:01:05;;;;;;;13.57;10.13;;;;;;;10.53;75.83;94234.28;4992326;28;20289;-45
2023/12/07 04:03:31;;;;;;;15.53;10.63;;;;;;;10.50;75.71;94219.28;4993354;28;20196;-46
2023/12/07 04:05:58;;;;;;;13.80;9.57;;;;;;;10.51;75.53;94221.66;4992832;28;20649;-45
2023/12/07 04:08:25;;;;;;;12.57;9.63;;;;;;;10.45;75.62;94214.59;4992635;28;20237;-46
2023/12/07 04:10:53;;;;;;;14.43;9.93;;;;;;;10.53;75.64;94227.44;4992290;28;20646;-44
2023/12/07 04:13:20;;;;;;;13.80;9.77;;;;;;;10.53;75.77;94230.00;4992667;28;20193;-45
2023/12/07 04:15:47;;;;;;;12.93;10.13;;;;;;;10.41;75.77;94215.84;4993008;28;20271;-44
2023/12/07 04:18:14;;;;;;;15.37;9.83;;;;;;;10.54;75.64;94233.34;4992904;28;20656;-44
2023/12/07 04:20:41;;;;;;;11.97;9.40;;;;;;;10.44;75.74;94225.75;4992313;28;20259;-44
2023/12/07 04:23:08;;;;;;;12.87;9.80;;;;;;;10.55;75.77;94245.19;4992485;28;20209;-44
2023/12/07 04:25:35;;;;;;;15.67;10.30;;;;;;;10.55;75.64;94242.63;4992534;28;20343;-43
2023/12/07 04:28:03;;;;;;;12.43;9.27;;;;;;;10.49;75.95;94241.47;4992638;28;20192;-44
2023/12/07 04:30:30;;;;;;;15.67;9.37;;;;;;;10.55;75.82;94252.84;4992481;28;20227;-44
2023/12/07 04:32:57;;;;;;;12.80;9.43;;;;;;;10.55;75.85;94252.84;4991640;28;20189;-44
2023/12/07 04:35:26;;;;;;;14.53;9.53;;;;;;;10.55;75.74;94255.41;4991297;28;20193;-44
2023/12/07 04:37:54;;;;;;;12.50;8.70;;;;;;;10.55;75.59;94256.22;4992379;28;20185;-45
2023/12/07 04:40:21;;;;;;;10.53;8.50;;;;;;;10.55;75.74;94258.75;4975267;28;20193;-45
2023/12/07 04:42:47;;;;;;;11.00;8.70;;;;;;;10.56;75.67;94259.56;4991894;28;20196;-44
2023/12/07 04:45:16;;;;;;;13.17;8.60;;;;;;;10.53;75.60;94252.19;4991733;28;20673;-45
2023/12/07 04:47:43;;;;;;;11.53;8.63;;;;;;;9.97;75.51;94161.31;4992354;28;20204;-44
2023/12/07 04:50:10;;;;;;;12.53;9.43;;;;;;;10.54;75.60;94251.25;4974270;28;20193;-44
2023/12/07 04:52:37;;;;;;;12.10;9.00;;;;;;;10.55;75.74;94253.66;4991202;28;20704;-44
2023/12/07 04:55:06;;;;;;;11.67;8.97;;;;;;;10.07;75.64;94176.56;4991959;28;20665;-44
2023/12/07 04:57:32;;;;;;;11.90;8.20;;;;;;;10.57;75.62;94255.25;4992381;28;20221;-46
2023/12/07 04:59:59;;;;;;;11.13;8.30;;;;;;;10.52;75.61;94253.16;4991941;28;20279;-45
2023/12/07 05:02:27;;;;;;;13.70;8.73;;;;;;;10.55;75.87;94265.63;4992117;28;20201;-45
2023/12/07 05:04:55;;;;;;;11.67;8.93;;;;;;;10.55;75.91;94271.56;4991101;28;20181;-43
2023/12/07 05:07:22;;;;;;;11.23;9.10;;;;;;;10.52;75.85;94260.81;4991115;28;20253;-43
2023/12/07 05:09:50;;;;;;;12.97;9.30;;;;;;;10.54;75.76;94264.03;4991349;28;20223;-46
2023/12/07 05:12:17;;;;;;;13.40;9.77;;;;;;;10.54;75.88;94274.25;4991627;28;20225;-43
2023/12/07 05:14:44;;;;;;;13.00;9.30;;;;;;;10.54;75.82;94274.25;4973747;28;20195;-45
2023/12/07 05:17:11;;;;;;;12.67;8.93;;;;;;;10.54;75.85;94269.16;4991481;28;20201;-44
2023/12/07 05:19:43;;;;;;;13.83;9.63;;;;;;;10.07;75.59;94202.94;4991792;28;20256;-46
2023/12/07 05:22:10;;;;;;;12.57;9.33;;;;;;;10.52;75.91;94274.41;4991328;28;20628;-44
2023/12/07 05:24:37;;;;;;;12.60;10.07;;;;;;;10.56;75.81;94277.47;4991343;28;20189;-44
2023/12/07 05:27:04;;;;;;;14.77;9.87;;;;;;;10.58;75.61;94282.41;4991799;28;20200;-45
2023/12/07 05:29:31;;;;;;;11.10;9.03;;;;;;;10.58;75.60;94279.88;4991727;28;20231;-43
2023/12/07 05:31:58;;;;;;;10.67;8.60;;;;;;;10.49;75.68;94274.72;4991371;28;20240;-43
2023/12/07 05:34:25;;;;;;;13.20;10.03;;;;;;;10.58;75.61;94292.66;4991608;28;20267;-45
2023/12/07 05:36:57;;;;;;;11.27;10.07;;;;;;;10.58;75.42;94290.91;4991468;28;20661;-43
2023/12/07 05:39:26;;;;;;;13.97;9.00;;;;;;;10.58;75.69;94290.91;4974694;28;20197;-44
2023/12/07 05:41:56;;;;;;;11.27;9.07;;;;;;;10.47;75.61;94275.78;4991182;28;20669;-44
2023/12/07 05:44:22;;;;;;;11.53;9.30;;;;;;;10.59;75.84;94292.53;4991489;28;20193;-42
2023/12/07 05:46:50;;;;;;;12.73;9.43;;;;;;;10.60;75.66;94291.56;4973432;28;20193;-44
2023/12/07 05:49:17;;;;;;;12.53;10.10;;;;;;;10.61;75.76;94295.72;4991034;28;20239;-43
2023/12/07 05:51:44;;;;;;;12.33;9.30;;;;;;;10.61;75.74;94295.72;4990661;28;20275;-44
2023/12/07 05:54:12;;;;;;;14.50;9.73;;;;;;;10.60;75.87;94290.75;4990517;28;20231;-43
2023/12/07 05:56:39;;;;;;;13.93;9.57;;;;;;;10.63;75.88;94293.84;4990753;28;20234;-44
2023/12/07 05:59:04;;;;;;;11.20;9.13;;;;;;;10.64;75.68;94304.84;4983490;28;20193;-45
2023/12/07 06:01:31;;;;;;;12.90;9.20;;;;;;;10.65;75.55;94299.59;4990625;28;20255;-43
2023/12/07 06:03:59;;;;;;;10.70;8.50;;;;;;;10.65;75.56;94297.03;4990519;28;20192;-45
2023/12/07 06:06:26;;;;;;;12.37;10.27;;;;;;;10.65;75.66;94301.34;4990307;28;20288;-43
2023/12/07 06:08:53;;;;;;;11.90;9.13;;;;;;;10.63;75.58;94295.59;4989899;28;20224;-44
2023/12/07 06:11:21;;;;;;;10.60;6.23;;;;;;;10.88;98.71;94289.72;4991047;28;20225;-44
2023/12/07 06:13:48;;;;;;;8.07;5.83;;;;;;;11.67;100.00;94301.50;4991091;28;20190;-44
2023/12/07 06:16:17;;;;;;;10.47;6.50;;;;;;;12.40;100.00;94297.56;4991276;28;20582;-44
2023/12/07 06:18:44;;;;;;;6.83;5.53;;;;;;;13.08;100.00;94294.66;4990802;28;20197;-46
2023/12/07 06:21:12;;;;;;;7.70;5.87;;;;;;;13.69;100.00;94297.63;4990885;28;20197;-44
2023/12/07 06:23:39;;;;;;;6.80;5.53;;;;;;;14.19;98.60;94310.06;4990962;28;20227;-48
2023/12/07 06:26:06;;;;;;;9.73;7.47;;;;;;;14.51;96.08;94310.88;4990743;28;20200;-45
2023/12/07 06:28:34;;;;;;;8.30;6.47;;;;;;;14.59;93.78;94308.22;4990101;28;20276;-43
2023/12/07 06:31:07;;;;;;;10.00;6.43;;;;;;;14.53;91.95;94309.72;4990274;28;20197;-44
2023/12/07 06:33:34;;;;;;;12.33;7.27;;;;;;;14.42;90.16;94311.84;4991564;28;20627;-48
2023/12/07 06:36:01;;;;;;;8.23;6.67;;;;;;;14.29;88.59;94320.13;4991573;28;20201;-44
2023/12/07 06:38:28;;;;;;;9.57;7.10;;;;;;;14.10;87.36;94311.06;4990614;28;20193;-45
2023/12/07 06:40:57;;;;;;;11.27;8.20;;;;;;;14.00;86.09;94325.91;4990459;28;20201;-46
2023/12/07 06:43:25;;;;;;;12.03;7.50;;;;;;;13.86;85.21;94322.28;4990533;28;20185;-44
2023/12/07 06:45:53;;;;;;;10.67;8.03;;;;;;;13.73;84.45;94321.97;4990669;28;20196;-44
2023/12/07 06:48:20;;;;;;;11.10;8.17;;;;;;;13.61;83.61;94320.75;4989676;28;20193;-45
2023/12/07 06:50:47;;;;;;;13.80;8.50;;;;;;;13.50;83.18;94329.59;4990432;28;20688;-44
2023/12/07 06:53:15;;;;;;;11.77;8.37;;;;;;;13.35;82.54;94326.91;4989971;28;20746;-44
2023/12/07 06:55:43;;;;;;;11.17;8.93;;;;;;;13.29;82.31;94330.91;4990413;28;20189;-45
2023/12/07 06:58:10;;;;;;;10.73;8.93;;;;;;;13.13;81.85;94320.66;4990486;28;20626;-44
2023/12/07 07:00:38;;;;;;;11.07;8.30;;;;;;;13.12;81.56;94337.00;4972036;28;20196;-45
2023/12/07 07:03:07;;;;;;;15.00;9.27;;;;;;;13.05;81.09;94325.81;4989758;28;20201;-45
2023/12/07 07:05:33;;;;;;;9.97;8.17;;;;;;;12.97;80.55;94333.50;4972347;28;20228;-44
2023/12/07 07:08:00;;;;;;;10.90;8.87;;;;;;;12.90;80.47;94337.66;4989975;28;20224;-44
2023/12/07 07:10:27;;;;;;;12.27;8.87;;;;;;;12.84;79.92;94340.88;4989866;28;20689;-43
2023/12/07 07:12:54;;;;;;;12.37;9.63;;;;;;;12.64;79.54;94322.41;4988918;28;20220;-45
2023/12/07 07:15:23;;;;;;;10.80;8.13;;;;;;;12.73;79.34;94339.41;4995644;28;20192;-44
2023/12/07 07:17:49;;;;;;;10.93;8.93;;;;;;;12.67;79.34;94340.88;4997010;28;20240;-44
2023/12/07 07:20:18;;;;;;;11.93;8.40;;;;;;;12.62;79.12;94348.25;4996682;28;20196;-45
2023/12/07 07:22:45;;;;;;;12.13;8.27;;;;;;;12.58;78.84;94348.72;4996250;28;20189;-45
2023/12/07 07:25:15;;;;;;;13.03;9.00;;;;;;;12.46;78.74;94340.50;4996311;28;20184;-43
2023/12/07 07:27:41;;;;;;;9.17;8.07;;;;;;;12.50;78.51;94346.94;4996634;28;20271;-46
2023/12/07 07:30:09;;;;;;;15.67;8.67;;;;;;;12.47;78.65;94347.25;4996493;28;20193;-46
2023/12/07 07:32:36;;;;;;;11.40;8.33;;;;;;;12.41;78.43;94342.75;4996390;28;20228;-47
2023/12/07 07:35:03;;;;;;;10.93;8.03;;;;;;;12.41;78.24;94353.81;4995467;28;20411;-43
2023/12/07 07:37:33;;;;;;;11.10;8.20;;;;;;;12.37;78.14;94354.28;4989281;28;20652;-45
2023/12/07 07:40:00;;;;;;;11.10;8.30;;;;;;;12.33;77.94;94353.00;4975356;28;20333;-44
2023/12/07 07:42:27;;;;;;;10.40;8.80;;;;;;;12.30;77.92;94356.66;4989083;28;20527;-44
2023/12/07 07:44:54;;;;;;;11.83;8.07;;;;;;;12.12;77.73;94333.69;4999515;28;20270;-43
2023/12/07 07:47:20;;;;;;;10.03;7.90;;;;;;;12.23;77.90;94359.06;5001060;28;20545;-46
2023/12/07 07:49:48;;;;;;;9.50;7.47;;;;;;;12.20;77.63;94363.69;4995980;28;20283;-46
2023/12/07 07:52:15;;;;;;;9.10;7.13;;;;;;;12.06;77.55;94336.91;4991581;28;20224;-45
2023/12/07 07:54:43;;;;;;;10.73;8.53;;;;;;;12.05;77.54;94351.47;4995875;28;20203;-44
2023/12/07 07:57:10;;;;;;;11.53;6.70;;;;;;;12.10;77.33;94371.50;4994354;28;20259;-44
2023/12/07 07:59:37;;;;;;;9.53;7.03;;;;;;;11.89;77.34;94337.81;4992650;28;20184;-44
2023/12/07 08:02:04;;;;;;;9.03;7.00;;;;;;;12.04;77.08;94372.91;4993905;28;20204;-43
2023/12/07 08:04:32;;;;;;;8.90;6.97;;;;;;;12.00;77.01;94376.78;4992518;28;20185;-43
2023/12/07 08:06:59;;;;;;;7.50;6.00;;;;;;;11.95;77.00;94378.16;4994642;28;20368;-44
2023/12/07 08:09:25;;;;;;;8.90;6.50;;;;;;;11.95;76.96;94388.41;4990031;28;20250;-43
2023/12/07 08:11:54;;;;;;;6.77;5.77;;;;;;;11.93;76.75;94390.34;4992505;28;20224;-41
2023/12/07 08:14:20;;;;;;;8.60;6.47;;;;;;;11.85;76.93;94385.97;4991961;28;20189;-43
2023/12/07 08:16:47;;;;;;;7.87;6.23;;;;;;;11.86;76.79;94389.34;4991443;28;20185;-44
2023/12/07 08:19:14;;;;;;;7.10;5.60;;;;;;;11.82;76.77;94399.06;4994444;28;20402;-45
2023/12/07 08:21:41;;;;;;;13.00;6.13;;;;;;;11.79;76.59;94395.06;4995185;28;20201;-47
2023/12/07 08:24:08;;;;;;;6.90;5.50;;;;;;;11.78;76.46;94402.88;4992583;28;20189;-45
2023/12/07 08:26:35;;;;;;;7.73;5.43;;;;;;;11.75;76.54;94404.00;4991575;28;20213;-44
2023/12/07 08:29:03;;;;;;;6.83;5.03;;;;;;;11.72;76.32;94414.53;4991142;28;20605;-46
2023/12/07 08:31:30;;;;;;;6.23;5.10;;;;;;;11.69;76.21;94409.72;4989449;28;20201;-43
2023/12/07 08:33:57;;;;;;;5.77;5.03;;;;;;;11.65;76.06;94408.41;4991495;28;20189;-46
2023/12/07 08:36:24;;;;;;;7.37;4.60;;;;;;;11.64;76.02;94411.94;4991649;28;20287;-45
2023/12/07 08:38:52;;;;;;;6.60;4.83;;;;;;;11.56;76.04;94404.19;4990215;28;20201;-46
2023/12/07 08:41:18;;;;;;;5.33;4.40;;;;;;;11.44;76.25;94395.97;4992997;28;20181;-44
2023/12/07 08:43:45;;;;;;;6.73;4.63;;;;;;;11.58;76.01;94414.31;4995258;28;20197;-45
2023/12/07 08:46:14;;;;;;;7.70;4.60;;;;;;;11.55;75.79;94413.63;4990991;28;20657;-45
2023/12/07 08:48:41;;;;;;;5.07;4.27;;;;;;;11.51;75.67;94414.88;4991459;28;20201;-41
2023/12/07 08:51:08;;;;;;;6.57;4.43;;;;;;;11.51;75.57;94416.66;4992309;28;20233;-44
2023/12/07 08:53:35;;;;;;;4.50;4.00;;;;;;;11.49;75.63;94423.69;4987585;28;20213;-44
2023/12/07 08:56:02;;;;;;;4.27;3.87;;;;;;;11.45;75.61;94423.19;4988129;28;20327;-44
2023/12/07 08:58:29;;;;;;;4.37;3.97;;;;;;;11.32;75.59;94404.03;4990779;28;20205;-46
2023/12/07 09:00:55;;;;;;;4.27;3.40;;;;;;;11.44;75.57;94426.69;4991614;28;20204;-44
2023/12/07 09:03:27;;;;;;;3.77;3.47;;;;;;;11.41;75.43;94429.56;4986332;28;20185;-45
2023/12/07 09:05:54;;;;;;;3.70;3.40;;;;;;;11.39;75.17;94423.75;4989034;28;20641;-41
2023/12/07 09:08:20;;;;;;;3.73;3.30;;;;;;;11.37;75.25;94417.19;4992750;28;20228;-44
2023/12/07 09:10:49;;;;;;;3.80;3.33;;;;;;;11.36;75.12;94423.28;4990758;28;20208;-46
2023/12/07 09:13:16;;;;;;;3.30;3.00;;;;;;;11.34;75.22;94420.84;4990753;28;20615;-43
2023/12/07 09:15:43;;;;;;;7.33;3.23;;;;;;;11.33;75.02;94432.03;4989940;28;20181;-44
2023/12/07 09:18:10;;;;;;;3.73;3.40;;;;;;;11.32;74.94;94422.75;4986820;28;20200;-46
2023/12/07 09:20:45;;;;;;;3.40;3.10;;;;;;;11.31;74.93;94423.69;4988144;28;20288;-46
2023/12/07 09:23:12;;;;;;;5.87;3.17;;;;;;;11.28;75.01;94422.25;4987658;28;20192;-46
2023/12/07 09:25:40;;;;;;;3.53;3.23;;;;;;;11.28;74.91;94424.00;4990267;28;20200;-44
2023/12/07 09:28:08;;;;;;;3.30;3.00;;;;;;;11.25;74.65;94425.09;4990811;28;20212;-44
2023/12/07 09:30:34;;;;;;;5.20;2.87;;;;;;;11.24;74.79;94420.94;4990625;28;20188;-45
2023/12/07 09:33:02;;;;;;;3.87;2.83;;;;;;;10.76;74.63;94349.72;4987728;28;20231;-43
2023/12/07 09:35:29;;;;;;;3.30;3.00;;;;;;;11.22;74.58;94432.28;4986661;28;20224;-45
2023/12/07 09:37:58;;;;;;;3.03;2.77;;;;;;;11.20;74.37;94429.06;4969452;28;20284;-46
2023/12/07 09:40:27;;;;;;;3.93;3.00;;;;;;;11.16;74.47;94425.19;4981613;28;20635;-45
2023/12/07 09:42:54;;;;;;;3.10;2.50;;;;;;;11.14;74.11;94427.09;4967257;28;20638;-43
2023/12/07 09:45:22;;;;;;;3.07;2.87;;;;;;;11.13;74.29;94433.97;4989113;28;20200;-44
2023/12/07 09:47:50;;;;;;;2.73;2.47;;;;;;;11.06;74.26;94422.72;4985903;28;20197;-47
2023/12/07 09:50:19;;;;;;;2.53;2.33;;;;;;;10.89;74.08;94397.94;4989407;28;20200;-45
2023/12/07 09:52:45;;;;;;;2.40;2.20;;;;;;;11.06;74.33;94432.97;4985703;28;20225;-45
2023/12/07 09:55:14;;;;;;;2.63;2.43;;;;;;;11.01;74.15;94425.72;4989024;28;20733;-42
2023/12/07 09:57:40;;;;;;;2.63;2.43;;;;;;;10.99;74.13;94429.38;4984244;28;20675;-46
2023/12/07 10:00:10;;;;;;;3.00;2.53;;;;;;;10.87;74.37;94410.88;4989080;28;20208;-44
2023/12/07 10:02:39;;;;;;;2.90;2.60;;;;;;;10.94;74.18;94429.00;4983971;28;20209;-43
2023/12/07 10:05:07;;;;;;;3.70;2.40;;;;;;;10.87;74.26;94423.66;4990526;28;20217;-45
2023/12/07 10:07:37;;;;;;;2.50;2.30;;;;;;;10.89;74.12;94436.31;4988939;28;20236;-44
2023/12/07 10:10:05;;;;;;;2.30;2.10;;;;;;;10.84;73.97;94423.97;4987107;28;20285;-44
2023/12/07 10:12:35;;;;;;;2.20;2.00;;;;;;;10.80;73.90;94431.13;4973296;28;20271;-45
2023/12/07 10:15:03;;;;;;;2.30;2.13;;;;;;;10.77;73.91;94428.84;4989414;28;20209;-46
2023/12/07 10:17:47;;;;;;;4.53;2.10;;;;;;;10.73;73.95;94424.97;4983648;28;20624;-45
2023/12/07 10:20:15;;;;;;;2.23;2.10;;;;;;;10.66;73.88;94435.91;4986547;28;20216;-48
2023/12/07 10:22:42;;;;;;;2.27;2.13;;;;;;;10.59;73.85;94420.38;4987784;28;20192;-43
2023/12/07 10:25:12;;;;;;;2.60;2.40;;;;;;;10.65;73.86;94426.66;4990390;28;20233;-46
2023/12/07 10:27:44;;;;;;;2.23;2.03;;;;;;;10.62;73.76;94424.38;4986617;28;20650;-46
2023/12/07 10:30:12;;;;;;;2.47;2.27;;;;;;;10.60;73.61;94421.97;4986661;28;20205;-42
2023/12/07 10:32:40;;;;;;;2.00;1.90;;;;;;;10.59;73.24;94422.91;4972383;28;20220;-45
2023/12/07 10:35:10;;;;;;;2.40;2.00;;;;;;;10.57;73.76;94426.56;4989537;28;20695;-43
2023/12/07 10:37:37;;;;;;;1.90;1.80;;;;;;;10.56;73.49;94428.31;4986310;28;20225;-45
2023/12/07 10:40:07;;;;;;;1.90;1.80;;;;;;;10.42;73.52;94409.16;4986927;28;20189;-45
2023/12/07 10:42:36;;;;;;;2.20;2.10;;;;;;;10.54;73.38;94428.47;4989234;28;20285;-46
2023/12/07 10:45:09;;;;;;;2.60;2.40;;;;;;;10.53;73.70;94431.16;4985778;28;20243;-44
2023/12/07 10:47:37;;;;;;;2.20;2.00;;;;;;;10.49;73.57;94423.00;4983242;28;20232;-44
2023/12/07 10:50:10;;;;;;;1.90;1.80;;;;;;;10.49;73.40;94428.09;4976016;28;20609;-43
2023/12/07 10:52:43;;;;;;;2.23;2.03;;;;;;;10.96;97.33;94421.97;4985356;28;20275;-44
2023/12/07 10:55:16;;;;;;;2.50;2.30;;;;;;;11.83;97.10;94428.06;4985827;28;20280;-46
2023/12/07 10:57:46;;;;;;;3.50;2.10;;;;;;;12.43;93.04;94430.59;4988909;28;20615;-43
2023/12/07 11:00:15;;;;;;;3.23;2.20;;;;;;;12.64;90.18;94425.84;4983322;28;20584;-44
2023/12/07 11:02:44;;;;;;;2.43;1.87;;;;;;;12.47;88.11;94407.03;4984935;28;20233;-41
2023/12/07 11:05:12;;;;;;;2.37;2.17;;;;;;;12.58;86.18;94436.72;4984744;28;20495;-44
2023/12/07 11:07:48;;;;;;;2.60;2.33;;;;;;;12.47;84.37;94430.13;4988904;28;20237;-44
2023/12/07 11:10:22;;;;;;;1.80;1.70;;;;;;;12.34;82.82;94436.66;4987756;28;20673;-43
2023/12/07 11:12:57;;;;;;;2.20;2.00;;;;;;;12.21;81.78;94437.88;4988780;28;20220;-42
2023/12/07 11:15:26;;;;;;;2.60;1.90;;;;;;;12.09;80.92;94431.44;4987364;28;20279;-45
2023/12/07 11:17:54;;;;;;;2.33;2.10;;;;;;;11.96;80.38;94431.84;4988799;28;20200;-44
2023/12/07 11:20:22;;;;;;;3.27;1.93;;;;;;;11.83;79.52;94428.91;4989351;28;20276;-44
2023/12/07 11:22:49;;;;;;;3.13;2.10;;;;;;;11.77;79.47;94437.13;4988818;28;20249;-45
2023/12/07 11:25:16;;;;;;;2.33;2.10;;;;;;;11.63;79.26;94433.38;4983543;28;20280;-44
2023/12/07 11:27:47;;;;;;;2.40;2.20;;;;;;;11.55;78.86;94430.75;4981124;28;20200;-44
2023/12/07 11:30:16;;;;;;;3.53;2.20;;;;;;;11.42;78.33;94422.66;4983217;28;20200;-45